createdAt,value
2023-04-02T00:00:10.610Z,100.00
2023-04-02T00:03:00.420Z,100.00
2023-04-02T00:05:31.357Z,100.00
2023-04-02T00:08:10.336Z,100.00
2023-04-02T00:10:40.435Z,100.00
2023-04-02T00:13:23.211Z,100.00
2023-04-02T00:15:51.969Z,100.00
2023-04-02T00:18:21.286Z,100.00
2023-04-02T00:20:53.301Z,100.00
2023-04-02T00:23:19.885Z,100.00
2023-04-02T00:25:47.215Z,100.00
2023-04-02T00:28:18.161Z,100.00
2023-04-02T00:30:59.771Z,100.00
2023-04-02T00:33:30.286Z,100.00
2023-04-02T00:35:56.983Z,100.00
2023-04-02T00:38:34.308Z,100.00
2023-04-02T00:41:03.665Z,100.00
2023-04-02T00:43:36.179Z,100.00
2023-04-02T00:46:10.775Z,100.00
2023-04-02T00:48:49.123Z,100.00
2023-04-02T00:51:35.426Z,100.00
2023-04-02T00:54:05.778Z,100.00
2023-04-02T00:56:38.530Z,100.00
2023-04-02T00:59:05.453Z,100.00
2023-04-02T01:01:37.761Z,100.00
2023-04-02T01:04:05.724Z,100.00
2023-04-02T01:06:37.086Z,100.00
2023-04-02T01:09:13.539Z,100.00
2023-04-02T01:12:03.336Z,100.00
2023-04-02T01:14:36.731Z,100.00
2023-04-02T01:17:10.841Z,100.00
2023-04-02T01:20:11.830Z,100.00
2023-04-02T01:23:02.469Z,100.00
2023-04-02T01:26:06.587Z,100.00
2023-04-02T01:29:13.854Z,100.00
2023-04-02T01:31:41.444Z,100.00
2023-04-02T01:34:13.366Z,100.00
2023-04-02T01:36:49.265Z,100.00
2023-04-02T01:39:22.594Z,100.00
2023-04-02T01:42:14.885Z,100.00
2023-04-02T01:44:49.862Z,100.00
2023-04-02T01:47:20.041Z,100.00
2023-04-02T01:49:47.343Z,100.00
2023-04-02T01:52:19.164Z,100.00
2023-04-02T01:54:47.698Z,100.00
2023-04-02T01:57:14.518Z,100.00
2023-04-02T01:59:41.189Z,100.00
2023-04-02T02:02:13.421Z,100.00
2023-04-02T02:04:40.896Z,100.00
2023-04-02T02:07:15.090Z,100.00
2023-04-02T02:09:42.392Z,100.00
2023-04-02T02:12:13.650Z,100.00
2023-04-02T02:14:46.776Z,100.00
2023-04-02T02:17:17.702Z,100.00
2023-04-02T02:19:48.985Z,100.00
2023-04-02T02:22:37.444Z,100.00
2023-04-02T02:25:10.751Z,100.00
2023-04-02T02:27:57.077Z,100.00
2023-04-02T02:30:49.137Z,100.00
2023-04-02T02:33:25.470Z,100.00
2023-04-02T02:36:03.229Z,100.00
2023-04-02T02:38:42.560Z,100.00
2023-04-02T02:41:28.341Z,100.00
2023-04-02T02:44:03.607Z,100.00
2023-04-02T02:46:32.478Z,100.00
2023-04-02T02:49:00.092Z,100.00
2023-04-02T02:51:41.123Z,100.00
2023-04-02T02:54:07.842Z,100.00
2023-04-02T02:56:40.047Z,100.00
2023-04-02T02:59:08.533Z,100.00
2023-04-02T03:01:35.967Z,100.00
2023-04-02T03:04:03.232Z,100.00
2023-04-02T03:06:30.211Z,100.00
2023-04-02T03:09:15.666Z,100.00
2023-04-02T03:12:03.997Z,100.00
2023-04-02T03:14:48.877Z,100.00
2023-04-02T03:17:35.597Z,100.00
2023-04-02T03:20:25.876Z,100.00
2023-04-02T03:22:58.178Z,100.00
2023-04-02T03:25:48.197Z,100.00
2023-04-02T03:28:20.337Z,100.00
2023-04-02T03:30:55.286Z,100.00
2023-04-02T03:33:27.686Z,100.00
2023-04-02T03:36:18.879Z,100.00
2023-04-02T03:38:52.100Z,100.00
2023-04-02T03:41:24.615Z,100.00
2023-04-02T03:43:59.088Z,100.00
2023-04-02T03:46:37.914Z,100.00
2023-04-02T03:49:19.890Z,100.00
2023-04-02T03:51:55.359Z,100.00
2023-04-02T03:54:22.101Z,100.00
2023-04-02T03:56:49.551Z,100.00
2023-04-02T03:59:28.217Z,100.00
2023-04-02T04:02:11.691Z,100.00
2023-04-02T04:04:41.946Z,100.00
2023-04-02T04:07:16.261Z,100.00
2023-04-02T04:09:46.836Z,100.00
2023-04-02T04:12:31.217Z,100.00
2023-04-02T04:15:06.363Z,100.00
2023-04-02T04:17:38.466Z,99.37
2023-04-02T04:20:40.449Z,99.04
2023-04-02T04:23:19.816Z,100.00
2023-04-02T04:25:49.526Z,100.00
2023-04-02T04:28:29.292Z,100.00
2023-04-02T04:31:04.333Z,100.00
2023-04-02T04:33:39.933Z,98.63
2023-04-02T04:36:19.543Z,98.46
2023-04-02T04:38:55.536Z,99.06
2023-04-02T04:41:28.171Z,100.00
2023-04-02T04:43:56.113Z,99.35
2023-04-02T04:46:45.262Z,100.00
2023-04-02T04:49:18.225Z,99.27
2023-04-02T04:51:52.034Z,98.53
2023-04-02T04:54:20.038Z,98.87
2023-04-02T04:56:50.196Z,97.93
2023-04-02T04:59:33.984Z,98.32
2023-04-02T05:02:11.612Z,98.97
2023-04-02T05:04:41.194Z,96.08
2023-04-02T05:07:18.369Z,95.51
2023-04-02T05:10:10.616Z,94.83
2023-04-02T05:12:48.461Z,93.84
2023-04-02T05:15:31.551Z,94.10
2023-04-02T05:18:20.201Z,95.00
2023-04-02T05:20:52.378Z,95.83
2023-04-02T05:23:28.695Z,95.94
2023-04-02T05:26:00.380Z,95.80
2023-04-02T05:28:40.832Z,96.10
2023-04-02T05:31:12.552Z,96.38
2023-04-02T05:33:40.010Z,95.91
2023-04-02T05:36:12.245Z,95.51
2023-04-02T05:38:44.318Z,95.08
2023-04-02T05:41:27.200Z,95.46
2023-04-02T05:44:02.152Z,96.65
2023-04-02T05:46:33.732Z,96.34
2023-04-02T05:49:00.345Z,95.92
2023-04-02T05:51:39.689Z,96.03
2023-04-02T05:54:14.279Z,95.16
2023-04-02T05:56:46.964Z,95.01
2023-04-02T05:59:29.698Z,94.68
2023-04-02T06:02:17.369Z,95.65
2023-04-02T06:04:56.601Z,95.75
2023-04-02T06:08:09.244Z,95.54
2023-04-02T06:10:46.268Z,96.39
2023-04-02T06:13:17.991Z,96.08
2023-04-02T06:15:46.048Z,96.18
2023-04-02T06:18:25.813Z,97.70
2023-04-02T06:20:53.004Z,96.10
2023-04-02T06:23:33.976Z,95.55
2023-04-02T06:26:05.696Z,95.89
2023-04-02T06:28:40.543Z,96.29
2023-04-02T06:31:25.927Z,95.80
2023-04-02T06:33:54.916Z,95.80
2023-04-02T06:36:21.906Z,95.97
2023-04-02T06:38:50.787Z,96.91
2023-04-02T06:41:24.527Z,95.87
2023-04-02T06:43:55.910Z,96.07
2023-04-02T06:46:45.579Z,96.69
2023-04-02T06:49:38.805Z,96.57
2023-04-02T06:52:13.916Z,95.60
2023-04-02T06:54:40.381Z,94.58
2023-04-02T06:57:07.729Z,93.76
2023-04-02T06:59:34.213Z,96.31
2023-04-02T07:02:31.090Z,96.30
2023-04-02T07:05:02.844Z,97.75
2023-04-02T07:07:29.411Z,95.91
2023-04-02T07:09:56.324Z,95.73
2023-04-02T07:12:24.944Z,96.52
2023-04-02T07:14:51.691Z,95.13
2023-04-02T07:17:19.837Z,96.97
2023-04-02T07:19:49.430Z,96.17
2023-04-02T07:22:19.915Z,96.54
2023-04-02T07:24:46.792Z,96.33
2023-04-02T07:27:15.205Z,96.57
2023-04-02T07:29:44.534Z,96.37
2023-04-02T07:32:12.488Z,96.90
2023-04-02T07:34:40.762Z,96.04
2023-04-02T07:37:08.410Z,96.18
2023-04-02T07:39:36.930Z,96.58
2023-04-02T07:42:04.757Z,97.85
2023-04-02T07:44:31.374Z,96.63
2023-04-02T07:46:57.949Z,96.28
2023-04-02T07:49:24.469Z,95.90
2023-04-02T07:51:52.057Z,95.35
2023-04-02T07:54:18.490Z,94.52
2023-04-02T07:56:44.899Z,96.50
2023-04-02T07:59:11.363Z,95.31
2023-04-02T08:01:37.850Z,94.82
2023-04-02T08:04:05.694Z,94.99
2023-04-02T08:06:32.228Z,95.65
2023-04-02T08:08:59.326Z,94.63
2023-04-02T08:11:26.012Z,94.27
2023-04-02T08:13:52.447Z,94.36
2023-04-02T08:16:19.252Z,94.81
2023-04-02T08:18:47.560Z,94.26
2023-04-02T08:21:16.366Z,95.27
2023-04-02T08:23:43.464Z,94.85
2023-04-02T08:26:09.857Z,95.37
2023-04-02T08:28:36.287Z,93.67
2023-04-02T08:31:04.630Z,94.43
2023-04-02T08:33:31.436Z,94.85
2023-04-02T08:35:57.935Z,94.50
2023-04-02T08:38:25.345Z,92.87
2023-04-02T08:40:56.267Z,93.18
2023-04-02T08:43:41.865Z,91.77
2023-04-02T08:46:26.613Z,91.98
2023-04-02T08:49:00.638Z,94.19
2023-04-02T08:51:30.773Z,92.88
2023-04-02T08:54:06.401Z,93.54
2023-04-02T08:56:40.274Z,93.58
2023-04-02T08:59:17.170Z,91.61
2023-04-02T09:02:22.618Z,92.16
2023-04-02T09:04:49.554Z,91.48
2023-04-02T09:07:17.567Z,93.27
2023-04-02T09:09:48.602Z,90.88
2023-04-02T09:12:27.747Z,92.07
2023-04-02T09:15:26.221Z,91.01
2023-04-02T09:18:00.882Z,91.79
2023-04-02T09:20:28.580Z,89.51
2023-04-02T09:22:55.979Z,87.65
2023-04-02T09:25:29.803Z,87.96
2023-04-02T09:27:58.159Z,88.17
2023-04-02T09:30:57.408Z,86.49
2023-04-02T09:33:47.262Z,87.48
2023-04-02T09:36:25.256Z,90.30
2023-04-02T09:39:00.447Z,88.97
2023-04-02T09:41:29.550Z,87.74
2023-04-02T09:44:12.559Z,87.48
2023-04-02T09:46:52.884Z,84.76
2023-04-02T09:49:23.643Z,81.40
2023-04-02T09:52:25.818Z,81.63
2023-04-02T09:55:24.288Z,81.93
2023-04-02T09:57:51.891Z,80.97
2023-04-02T10:00:32.465Z,81.70
2023-04-02T10:03:23.477Z,79.51
2023-04-02T10:06:07.704Z,78.79
2023-04-02T10:08:35.835Z,78.14
2023-04-02T10:11:06.133Z,79.13
2023-04-02T10:13:43.020Z,78.21
2023-04-02T10:16:17.450Z,79.10
2023-04-02T10:19:13.287Z,77.00
2023-04-02T10:21:42.352Z,73.13
2023-04-02T10:24:16.796Z,73.91
2023-04-02T10:27:06.607Z,71.14
2023-04-02T10:30:02.566Z,74.47
2023-04-02T10:32:34.999Z,74.60
2023-04-02T10:35:05.042Z,74.70
2023-04-02T10:37:37.515Z,69.53
2023-04-02T10:40:12.221Z,75.13
2023-04-02T10:42:45.493Z,71.06
2023-04-02T10:45:17.854Z,69.24
2023-04-02T10:48:00.475Z,68.86
2023-04-02T10:50:38.520Z,73.22
2023-04-02T10:53:16.311Z,68.24
2023-04-02T10:55:48.317Z,71.83
2023-04-02T10:58:25.563Z,70.68
2023-04-02T11:00:56.786Z,69.47
2023-04-02T11:03:43.196Z,68.38
2023-04-02T11:06:27.597Z,67.64
2023-04-02T11:09:01.134Z,71.10
2023-04-02T11:11:41.279Z,69.12
2023-04-02T11:14:36.497Z,70.36
2023-04-02T11:17:03.386Z,67.33
2023-04-02T11:19:34.551Z,70.50
2023-04-02T11:22:15.389Z,69.83
2023-04-02T11:24:53.205Z,70.78
2023-04-02T11:27:33.727Z,67.19
2023-04-02T11:30:19.874Z,67.96
2023-04-02T11:32:49.723Z,67.05
2023-04-02T11:35:31.702Z,69.09
2023-04-02T11:38:19.757Z,66.63
2023-04-02T11:40:57.955Z,67.57
2023-04-02T11:43:33.648Z,68.71
2023-04-02T11:46:16.483Z,66.33
2023-04-02T11:48:43.374Z,69.85
2023-04-02T11:51:33.167Z,66.98
2023-04-02T11:53:59.851Z,68.30
2023-04-02T11:56:38.940Z,69.09
2023-04-02T11:59:27.355Z,62.94
2023-04-02T12:02:14.375Z,63.27
2023-04-02T12:05:03.406Z,65.75
2023-04-02T12:07:52.101Z,68.36
2023-04-02T12:10:22.007Z,65.26
2023-04-02T12:12:49.483Z,63.88
2023-04-02T12:15:28.629Z,63.43
2023-04-02T12:18:05.868Z,67.30
2023-04-02T12:20:32.930Z,62.79
2023-04-02T12:22:59.853Z,68.48
2023-04-02T12:25:40.007Z,64.30
2023-04-02T12:28:09.471Z,66.02
2023-04-02T12:30:38.140Z,66.42
2023-04-02T12:33:38.820Z,66.59
2023-04-02T12:36:27.360Z,65.53
2023-04-02T12:38:56.932Z,62.97
2023-04-02T12:41:30.278Z,61.41
2023-04-02T12:44:03.238Z,62.95
2023-04-02T12:46:31.286Z,64.95
2023-04-02T12:49:17.723Z,63.20
2023-04-02T12:51:44.331Z,66.76
2023-04-02T12:54:17.424Z,61.65
2023-04-02T12:56:44.307Z,62.37
2023-04-02T12:59:31.024Z,64.98
2023-04-02T13:02:00.706Z,60.62
2023-04-02T13:04:27.601Z,64.41
2023-04-02T13:06:55.894Z,61.78
2023-04-02T13:09:43.951Z,65.00
2023-04-02T13:12:26.382Z,61.48
2023-04-02T13:14:57.633Z,64.64
2023-04-02T13:17:41.373Z,62.47
2023-04-02T13:20:34.830Z,63.42
2023-04-02T13:23:23.753Z,59.99
2023-04-02T13:25:51.043Z,63.33
2023-04-02T13:28:17.724Z,62.00
2023-04-02T13:30:44.410Z,59.59
2023-04-02T13:33:10.907Z,64.24
2023-04-02T13:35:37.548Z,59.98
2023-04-02T13:38:05.700Z,59.89
2023-04-02T13:40:33.976Z,67.37
2023-04-02T13:43:00.904Z,59.18
2023-04-02T13:45:30.994Z,61.85
2023-04-02T13:48:00.969Z,59.83
2023-04-02T13:50:30.293Z,62.96
2023-04-02T13:53:00.304Z,62.44
2023-04-02T13:55:30.418Z,61.93
2023-04-02T13:57:57.866Z,60.72
2023-04-02T14:00:24.233Z,62.63
2023-04-02T14:02:56.012Z,60.69
2023-04-02T14:05:32.189Z,61.28
2023-04-02T14:08:01.713Z,60.29
2023-04-02T14:10:57.220Z,60.69
2023-04-02T14:13:29.466Z,61.05
2023-04-02T14:16:17.844Z,59.03
2023-04-02T14:18:44.250Z,60.01
2023-04-02T14:21:31.187Z,57.98
2023-04-02T14:24:17.209Z,60.18
2023-04-02T14:27:08.413Z,64.60
2023-04-02T14:29:51.019Z,61.82
2023-04-02T14:32:39.330Z,60.36
2023-04-02T14:35:35.121Z,59.29
2023-04-02T14:38:34.806Z,59.36
2023-04-02T14:41:36.880Z,58.28
2023-04-02T14:44:07.863Z,58.54
2023-04-02T14:46:37.867Z,60.74
2023-04-02T14:49:24.277Z,60.91
2023-04-02T14:51:59.534Z,61.16
2023-04-02T14:54:36.095Z,59.51
2023-04-02T14:57:48.843Z,62.10
2023-04-02T15:00:37.597Z,57.94
2023-04-02T15:03:23.665Z,60.67
2023-04-02T15:05:57.932Z,58.32
2023-04-02T15:08:36.590Z,57.41
2023-04-02T15:11:18.076Z,60.37
2023-04-02T15:14:01.115Z,58.44
2023-04-02T15:16:28.197Z,58.08
2023-04-02T15:18:59.628Z,58.60
2023-04-02T15:22:08.663Z,58.27
2023-04-02T15:25:11.365Z,60.15
2023-04-02T15:27:57.230Z,58.80
2023-04-02T15:30:29.002Z,57.38
2023-04-02T15:33:17.036Z,58.70
2023-04-02T15:35:49.568Z,57.91
2023-04-02T15:38:53.240Z,57.82
2023-04-02T15:41:32.098Z,56.70
2023-04-02T15:44:01.261Z,56.22
2023-04-02T15:46:44.033Z,55.93
2023-04-02T15:49:37.502Z,57.08
2023-04-02T15:52:17.233Z,58.90
2023-04-02T15:55:22.476Z,60.07
2023-04-02T15:58:12.269Z,57.46
2023-04-02T16:00:47.359Z,59.10
2023-04-02T16:03:43.185Z,58.80
2023-04-02T16:06:32.372Z,61.32
2023-04-02T16:09:07.236Z,61.80
2023-04-02T16:11:34.240Z,62.47
2023-04-02T16:14:09.465Z,61.62
2023-04-02T16:16:36.119Z,61.32
2023-04-02T16:19:16.861Z,60.05
2023-04-02T16:21:50.451Z,59.78
2023-04-02T16:24:17.054Z,62.18
2023-04-02T16:26:57.170Z,58.40
2023-04-02T16:29:51.602Z,58.97
2023-04-02T16:32:38.785Z,60.40
2023-04-02T16:38:11.881Z,59.74
2023-04-02T16:41:08.387Z,61.09
2023-04-02T16:44:05.814Z,60.61
2023-04-02T16:46:59.590Z,61.58
2023-04-02T16:49:36.211Z,59.96
2023-04-02T16:52:31.968Z,60.54
2023-04-02T16:55:11.525Z,60.02
2023-04-02T16:57:44.738Z,63.45
2023-04-02T17:00:11.484Z,63.30
2023-04-02T17:02:56.580Z,62.73
2023-04-02T17:05:31.768Z,63.89
2023-04-02T17:08:04.173Z,63.37
2023-04-02T17:10:34.803Z,63.43
2023-04-02T17:13:32.532Z,63.92
2023-04-02T17:16:22.319Z,63.25
2023-04-02T17:18:52.313Z,64.32
2023-04-02T17:21:23.854Z,66.26
2023-04-02T17:24:21.606Z,66.69
2023-04-02T17:27:13.701Z,68.20
2023-04-02T17:29:43.282Z,67.21
2023-04-02T17:32:26.996Z,67.72
2023-04-02T17:34:53.418Z,68.91
2023-04-02T17:37:39.300Z,68.43
2023-04-02T17:40:35.012Z,67.99
2023-04-02T17:43:26.351Z,67.85
2023-04-02T17:46:01.669Z,67.58
2023-04-02T17:48:28.095Z,69.88
2023-04-02T17:51:09.833Z,70.01
2023-04-02T17:54:05.140Z,69.94
2023-04-02T17:56:35.688Z,70.89
2023-04-02T17:59:12.624Z,71.40
2023-04-02T18:01:58.313Z,71.94
2023-04-02T18:04:46.514Z,71.83
2023-04-02T18:07:25.036Z,72.74
2023-04-02T18:10:21.977Z,73.04
2023-04-02T18:13:06.549Z,72.17
2023-04-02T18:15:44.859Z,73.51
2023-04-02T18:18:36.806Z,73.50
2023-04-02T18:21:31.108Z,74.30
2023-04-02T18:24:16.306Z,74.19
2023-04-02T18:26:55.172Z,74.37
2023-04-02T18:29:42.763Z,74.74
2023-04-02T18:32:45.970Z,74.19
2023-04-02T18:35:25.521Z,75.09
2023-04-02T18:38:02.483Z,74.97
2023-04-02T18:40:55.971Z,73.84
2023-04-02T18:43:42.638Z,72.52
2023-04-02T18:46:37.335Z,73.12
2023-04-02T18:49:19.157Z,73.87
2023-04-02T18:51:49.099Z,73.67
2023-04-02T18:54:35.109Z,73.92
2023-04-02T18:57:09.213Z,74.30
2023-04-02T18:59:54.438Z,74.28
2023-04-02T19:02:21.136Z,73.59
2023-04-02T19:04:58.031Z,74.28
2023-04-02T19:07:29.155Z,74.36
2023-04-02T19:09:58.341Z,74.78
2023-04-02T19:12:24.741Z,74.75
2023-04-02T19:14:52.382Z,74.79
2023-04-02T19:17:46.375Z,74.47
2023-04-02T19:20:28.480Z,74.15
2023-04-02T19:23:09.742Z,74.63
2023-04-02T19:25:58.815Z,74.67
2023-04-02T19:28:53.237Z,74.23
2023-04-02T19:31:25.844Z,74.14
2023-04-02T19:33:59.221Z,74.23
2023-04-02T19:36:47.212Z,74.34
2023-04-02T19:39:31.849Z,75.21
2023-04-02T19:42:11.335Z,75.12
2023-04-02T19:44:44.630Z,75.34
2023-04-02T19:47:11.529Z,75.60
2023-04-02T19:49:37.977Z,76.22
2023-04-02T19:52:04.646Z,75.56
2023-04-02T19:54:31.082Z,76.53
2023-04-02T19:56:57.537Z,76.67
2023-04-02T19:59:23.938Z,76.37
2023-04-02T20:01:50.322Z,76.77
2023-04-02T20:04:16.810Z,76.79
2023-04-02T20:06:43.376Z,77.22
2023-04-02T20:09:09.880Z,76.69
2023-04-02T20:11:37.867Z,76.58
2023-04-02T20:14:05.162Z,76.34
2023-04-02T20:16:32.793Z,76.56
2023-04-02T20:18:59.287Z,75.98
2023-04-02T20:21:26.701Z,76.06
2023-04-02T20:23:54.370Z,76.16
2023-04-02T20:26:22.469Z,76.48
2023-04-02T20:28:48.931Z,76.62
2023-04-02T20:31:17.651Z,76.72
2023-04-02T20:33:44.447Z,76.60
2023-04-02T20:36:13.676Z,76.93
2023-04-02T20:38:40.379Z,76.78
2023-04-02T20:41:07.860Z,76.91
2023-04-02T20:43:34.734Z,76.75
2023-04-02T20:46:08.352Z,77.17
2023-04-02T20:48:37.577Z,76.25
2023-04-02T20:51:06.202Z,76.20
2023-04-02T20:53:34.469Z,76.33
2023-04-02T20:56:17.439Z,77.09
2023-04-02T20:58:44.012Z,77.23
2023-04-02T21:01:15.511Z,76.52
2023-04-02T21:03:41.979Z,77.01
2023-04-02T21:06:19.829Z,76.90
2023-04-02T21:08:46.646Z,77.43
2023-04-02T21:11:13.723Z,78.01
2023-04-02T21:13:43.727Z,78.25
2023-04-02T21:16:15.892Z,77.71
2023-04-02T21:18:42.422Z,77.32
2023-04-02T21:21:13.493Z,78.09
2023-04-02T21:23:41.453Z,77.81
2023-04-02T21:26:11.576Z,77.57
2023-04-02T21:28:38.006Z,77.95
2023-04-02T21:31:07.019Z,78.11
2023-04-02T21:33:41.821Z,77.92
2023-04-02T21:36:23.016Z,77.91
2023-04-02T21:38:52.591Z,78.78
2023-04-02T21:41:26.469Z,78.91
2023-04-02T21:43:54.313Z,78.84
2023-04-02T21:46:24.242Z,78.92
2023-04-02T21:48:52.282Z,77.77
2023-04-02T21:51:24.020Z,78.44
2023-04-02T21:53:50.752Z,78.76
2023-04-02T21:56:19.967Z,79.00
2023-04-02T21:58:47.587Z,79.46
2023-04-02T22:01:26.765Z,79.34
2023-04-02T22:03:55.306Z,79.00
2023-04-02T22:06:23.014Z,79.06
2023-04-02T22:09:01.276Z,79.61
2023-04-02T22:11:30.673Z,80.04
2023-04-02T22:13:57.754Z,79.40
2023-04-02T22:16:28.008Z,79.74
2023-04-02T22:18:56.196Z,80.43
2023-04-02T22:21:22.956Z,80.27
2023-04-02T22:23:49.717Z,80.74
2023-04-02T22:26:17.589Z,80.85
2023-04-02T22:28:44.217Z,80.70
2023-04-02T22:31:16.509Z,80.65
2023-04-02T22:33:44.695Z,81.05
2023-04-02T22:36:12.682Z,81.51
2023-04-02T22:38:39.335Z,81.43
2023-04-02T22:41:17.447Z,81.80
2023-04-02T22:43:45.568Z,82.53
2023-04-02T22:46:14.812Z,83.12
2023-04-02T22:48:42.228Z,83.34
2023-04-02T22:51:10.563Z,83.26
2023-04-02T22:53:38.076Z,82.79
2023-04-02T22:56:08.724Z,83.31
2023-04-02T22:58:35.603Z,83.63
2023-04-02T23:01:12.148Z,83.58
2023-04-02T23:03:38.697Z,83.91
2023-04-02T23:06:10.516Z,83.77
2023-04-02T23:08:38.523Z,83.75
2023-04-02T23:11:06.578Z,83.61
2023-04-02T23:13:34.049Z,83.99
2023-04-02T23:16:06.523Z,84.12
2023-04-02T23:18:34.965Z,84.17
2023-04-02T23:21:01.893Z,84.29
2023-04-02T23:23:28.686Z,84.31
2023-04-02T23:26:11.854Z,84.44
2023-04-02T23:28:39.345Z,84.74
2023-04-02T23:31:08.417Z,85.03
2023-04-02T23:33:35.439Z,85.27
2023-04-02T23:36:18.331Z,85.74
2023-04-02T23:38:44.799Z,85.90
2023-04-02T23:41:16.175Z,85.79
2023-04-02T23:43:43.087Z,85.88
2023-04-02T23:46:09.601Z,85.82
2023-04-02T23:48:36.194Z,85.52
2023-04-02T23:51:02.668Z,85.92
2023-04-02T23:53:29.093Z,86.32
2023-04-02T23:55:55.610Z,86.17
2023-04-02T23:58:22.104Z,86.66
